Time;durP1;ratioP1;P1;durP2;ratioP2;P2;SDS_P1;SDS_P2;PMS_P1;PMS_P2;Temp;Humidity;BMP_temperature;BMP_pressure;BME280_temperature;BME280_humidity;BME280_pressure;Samples;Min_cycle;Max_cycle;Signal;HPM_P1;HPM_P2
2024/01/06 00:01:35;;;;;;;22.20;11.90;;;;;;;1.20;100.00;100749.83;107091;1247;70514;-80
2024/01/06 00:04:04;;;;;;;22.00;12.20;;;;;;;1.18;100.00;100746.99;106916;1249;73508;-84
2024/01/06 00:06:32;;;;;;;19.90;11.50;;;;;;;1.11;100.00;100751.48;106889;1248;61644;-83
2024/01/06 00:09:01;;;;;;;19.60;11.20;;;;;;;1.04;100.00;100749.98;106899;1249;60921;-83
2024/01/06 00:11:30;;;;;;;19.00;12.30;;;;;;;1.04;100.00;100748.80;106957;1254;71773;-86
2024/01/06 00:13:59;;;;;;;18.40;11.20;;;;;;;0.94;100.00;100742.45;106874;1248;70472;-83
2024/01/06 00:16:28;;;;;;;17.80;10.90;;;;;;;0.92;100.00;100740.77;107041;1258;70121;-82
2024/01/06 00:18:57;;;;;;;19.70;12.00;;;;;;;0.96;100.00;100736.38;106849;1259;72355;-81
2024/01/06 00:21:26;;;;;;;21.90;11.90;;;;;;;0.88;100.00;100732.69;106811;1248;58990;-81
2024/01/06 00:23:58;;;;;;;19.50;12.30;;;;;;;0.78;100.00;100738.46;106947;1256;60317;-81
2024/01/06 00:26:27;;;;;;;23.10;15.00;;;;;;;0.71;100.00;100741.44;106826;1248;71363;-81
2024/01/06 00:28:56;;;;;;;39.80;22.50;;;;;;;0.68;100.00;100742.05;107001;1248;72078;-80
2024/01/06 00:31:24;;;;;;;36.60;20.70;;;;;;;0.67;100.00;100742.93;106860;1251;70760;-81
2024/01/06 00:33:53;;;;;;;32.80;19.40;;;;;;;0.71;100.00;100745.59;106994;1259;72634;-81
2024/01/06 00:36:23;;;;;;;35.10;20.20;;;;;;;0.71;100.00;100741.29;106963;1259;61980;-82
2024/01/06 00:38:51;;;;;;;40.40;22.80;;;;;;;0.78;100.00;100737.63;107016;1255;61566;-81
2024/01/06 00:41:20;;;;;;;38.50;22.60;;;;;;;0.83;100.00;100739.20;107344;1256;72250;-79
2024/01/06 00:43:49;;;;;;;32.60;18.50;;;;;;;0.83;100.00;100744.34;107792;1248;69012;-80
2024/01/06 00:46:21;;;;;;;18.90;11.90;;;;;;;0.85;100.00;100741.55;107139;1259;69677;-83
2024/01/06 00:48:49;;;;;;;32.50;18.10;;;;;;;0.89;100.00;100737.45;107211;1248;72366;-86
2024/01/06 00:51:19;;;;;;;27.50;14.20;;;;;;;0.90;100.00;100733.30;107172;1248;60915;-85
2024/01/06 00:53:47;;;;;;;26.40;16.00;;;;;;;0.91;100.00;100731.75;107787;1247;60038;-82
2024/01/06 00:56:16;;;;;;;22.30;13.10;;;;;;;0.96;100.00;100727.47;107606;1249;71021;-86
2024/01/06 00:58:45;;;;;;;25.20;14.50;;;;;;;1.00;100.00;100723.73;106976;1248;69491;-81
2024/01/06 01:01:14;;;;;;;27.60;13.90;;;;;;;1.02;100.00;100726.41;106937;1248;70724;-78
2024/01/06 01:03:43;;;;;;;23.50;13.50;;;;;;;1.05;100.00;100724.08;106859;1248;73189;-81
2024/01/06 01:06:12;;;;;;;19.90;11.30;;;;;;;1.13;100.00;100724.31;106773;1259;62214;-81
2024/01/06 01:08:41;;;;;;;18.00;11.50;;;;;;;1.20;100.00;100722.55;106957;1247;59068;-79
2024/01/06 01:11:10;;;;;;;19.80;11.40;;;;;;;1.19;100.00;100716.23;107104;1248;70002;-80
2024/01/06 01:13:39;;;;;;;17.50;10.50;;;;;;;1.25;100.00;100710.22;107082;1248;69748;-78
2024/01/06 01:16:08;;;;;;;17.60;11.60;;;;;;;1.28;100.00;100708.03;107070;1251;68832;-79
2024/01/06 01:18:37;;;;;;;16.50;10.80;;;;;;;1.28;100.00;100711.80;107097;1250;72008;-83
2024/01/06 01:21:06;;;;;;;18.00;10.60;;;;;;;1.29;100.00;100701.48;107618;1249;59672;-85
2024/01/06 01:23:35;;;;;;;16.30;10.30;;;;;;;1.33;100.00;100701.85;107538;1249;58944;-78
2024/01/06 01:26:03;;;;;;;17.60;10.30;;;;;;;1.36;100.00;100697.66;107238;1248;72379;-79
2024/01/06 01:28:32;;;;;;;17.80;10.30;;;;;;;1.41;100.00;100696.60;107053;1247;70970;-81
2024/01/06 01:31:01;;;;;;;22.30;10.80;;;;;;;1.52;100.00;100696.05;107103;1255;68754;-82
2024/01/06 01:33:30;;;;;;;18.40;10.80;;;;;;;1.55;100.00;100688.91;107051;1249;72956;-82
2024/01/06 01:36:02;;;;;;;17.90;10.30;;;;;;;1.62;100.00;100680.06;107134;1247;60618;-80
2024/01/06 01:38:31;;;;;;;16.00;9.90;;;;;;;1.67;100.00;100672.87;107092;1247;59002;-81
2024/01/06 01:41:00;;;;;;;17.60;9.70;;;;;;;1.71;100.00;100670.16;106984;1249;72633;-78
2024/01/06 01:43:30;;;;;;;15.90;9.70;;;;;;;1.72;100.00;100668.55;107039;1246;71982;-77
2024/01/06 01:45:59;;;;;;;17.50;10.40;;;;;;;1.77;100.00;100665.64;107111;1254;71121;-77
2024/01/06 01:48:28;;;;;;;16.30;10.20;;;;;;;1.78;100.00;100660.77;107326;1251;63231;-79
2024/01/06 01:50:57;;;;;;;14.80;9.60;;;;;;;1.78;100.00;100654.77;107184;1248;61437;-81
2024/01/06 01:53:26;;;;;;;17.00;9.80;;;;;;;1.73;100.00;100653.23;107321;1244;59005;-80
2024/01/06 01:55:56;;;;;;;20.10;10.70;;;;;;;1.76;100.00;100646.59;107272;1255;62279;-80
2024/01/06 01:58:25;;;;;;;17.80;9.50;;;;;;;1.76;100.00;100640.77;107395;1245;69508;-80
2024/01/06 02:00:54;;;;;;;19.60;11.00;;;;;;;1.74;100.00;100641.16;107193;1244;69592;-77
2024/01/06 02:03:25;;;;;;;15.40;9.60;;;;;;;1.75;100.00;100644.25;107264;1255;72771;-78
2024/01/06 02:05:54;;;;;;;17.80;11.10;;;;;;;1.76;100.00;100647.78;107385;1249;62919;-77
2024/01/06 02:08:23;;;;;;;19.20;10.10;;;;;;;1.85;100.00;100641.27;107180;1244;61302;-79
2024/01/06 02:10:56;;;;;;;17.40;9.80;;;;;;;1.90;100.00;100637.86;107150;1244;73236;-76
2024/01/06 02:13:35;;;;;;;;;;;;;;;1.89;100.00;100637.70;107130;1245;69723;-78
2024/01/06 02:16:05;;;;;;;19.00;10.70;;;;;;;1.97;100.00;100636.89;107080;1252;70301;-78
2024/01/06 02:18:34;;;;;;;17.80;10.10;;;;;;;1.98;100.00;100630.16;107036;1256;73491;-78
2024/01/06 02:21:03;;;;;;;18.70;10.20;;;;;;;1.95;100.00;100621.15;107072;1248;57445;-77
2024/01/06 02:23:36;;;;;;;16.80;10.20;;;;;;;1.94;100.00;100620.36;107188;1245;58536;-79
2024/01/06 02:26:04;;;;;;;17.60;9.90;;;;;;;2.01;100.00;100626.09;107278;1244;71685;-78
2024/01/06 02:28:33;;;;;;;18.80;9.90;;;;;;;2.04;100.00;100622.88;107269;1256;61976;-77
2024/01/06 02:31:02;;;;;;;17.00;10.10;;;;;;;1.98;100.00;100620.88;107309;1255;67716;-79
2024/01/06 02:33:31;;;;;;;15.40;9.80;;;;;;;1.98;100.00;100621.22;107133;1246;62327;-80
2024/01/06 02:36:00;;;;;;;17.50;10.10;;;;;;;1.98;100.00;100620.38;107257;1245;61973;-78
2024/01/06 02:38:29;;;;;;;16.20;9.80;;;;;;;1.98;100.00;100623.10;107087;1253;60384;-82
2024/01/06 02:40:58;;;;;;;17.40;10.70;;;;;;;1.99;100.00;100621.88;107222;1245;62114;-82
2024/01/06 02:43:27;;;;;;;18.40;10.80;;;;;;;1.99;100.00;100613.96;107195;1244;71089;-83
2024/01/06 02:45:55;;;;;;;15.10;9.30;;;;;;;2.00;100.00;100615.66;107228;1243;70673;-81
2024/01/06 02:48:24;;;;;;;16.30;10.40;;;;;;;2.02;100.00;100610.61;107244;1245;63645;-82
2024/01/06 02:50:53;;;;;;;17.60;10.10;;;;;;;2.05;100.00;100608.59;107185;1245;58881;-80
2024/01/06 02:53:22;;;;;;;16.90;10.40;;;;;;;2.07;100.00;100605.60;107091;1248;59114;-83
2024/01/06 02:55:51;;;;;;;16.20;9.60;;;;;;;2.05;100.00;100604.30;107185;1245;61984;-80
2024/01/06 02:58:20;;;;;;;17.30;10.80;;;;;;;2.05;100.00;100602.91;107173;1244;71291;-81
2024/01/06 03:00:48;;;;;;;14.40;9.70;;;;;;;2.02;100.00;100599.78;107276;1245;69992;-81
2024/01/06 03:03:18;;;;;;;19.30;10.00;;;;;;;2.01;100.00;100596.02;107301;1243;72838;-79
2024/01/06 03:05:49;;;;;;;16.70;9.60;;;;;;;1.98;100.00;100594.95;107331;1244;61854;-82
2024/01/06 03:08:18;;;;;;;19.40;10.30;;;;;;;1.98;100.00;100588.08;107360;1243;58969;-82
2024/01/06 03:10:46;;;;;;;16.50;9.70;;;;;;;1.97;100.00;100587.92;107477;1248;71913;-84
2024/01/06 03:13:15;;;;;;;16.20;9.40;;;;;;;2.01;100.00;100582.11;107689;1248;72021;-85
2024/01/06 03:15:44;;;;;;;15.60;9.70;;;;;;;2.08;100.00;100583.89;107206;1246;68550;-85
2024/01/06 03:18:13;;;;;;;18.90;10.20;;;;;;;2.14;100.00;100582.11;107357;1253;63212;-84
2024/01/06 03:20:42;;;;;;;16.60;10.70;;;;;;;2.14;100.00;100576.63;107343;1254;57895;-86
2024/01/06 03:23:11;;;;;;;19.90;10.80;;;;;;;2.09;100.00;100576.65;107252;1245;59039;-83
2024/01/06 03:25:40;;;;;;;16.20;9.50;;;;;;;2.07;100.00;100572.63;107574;1244;71828;-84
2024/01/06 03:28:08;;;;;;;15.50;9.40;;;;;;;2.06;100.00;100570.77;107946;1247;71717;-81
2024/01/06 03:30:37;;;;;;;16.40;10.30;;;;;;;2.07;100.00;100572.77;107146;1248;59540;-80
2024/01/06 03:33:07;;;;;;;16.40;9.60;;;;;;;2.06;100.00;100580.70;106968;1246;62522;-80
2024/01/06 03:35:36;;;;;;;17.80;10.10;;;;;;;2.08;100.00;100593.00;106946;1244;61693;-78
2024/01/06 03:38:05;;;;;;;17.30;10.00;;;;;;;2.06;100.00;100598.75;107011;1244;61553;-81
2024/01/06 03:40:33;;;;;;;16.50;10.00;;;;;;;2.03;100.00;100606.61;107049;1254;73860;-82
2024/01/06 03:43:02;;;;;;;19.80;10.80;;;;;;;1.98;100.00;100600.13;107048;1256;61952;-82
2024/01/06 03:45:31;;;;;;;19.30;11.10;;;;;;;1.92;100.00;100600.16;107033;1252;69888;-79
2024/01/06 03:48:00;;;;;;;16.60;10.20;;;;;;;1.94;100.00;100602.48;107366;1248;73391;-80
2024/01/06 03:50:30;;;;;;;20.00;10.80;;;;;;;1.91;100.00;100600.70;107231;1246;61258;-84
2024/01/06 03:52:58;;;;;;;18.50;10.30;;;;;;;1.86;100.00;100599.17;107058;1256;60505;-82
2024/01/06 03:55:27;;;;;;;18.70;10.40;;;;;;;1.81;100.00;100602.64;107065;1246;63210;-82
2024/01/06 03:57:56;;;;;;;16.40;11.30;;;;;;;1.78;100.00;100599.66;107018;1247;61482;-80
2024/01/06 04:00:26;;;;;;;18.20;11.40;;;;;;;1.79;100.00;100599.60;107155;1247;69192;-82
2024/01/06 04:02:55;;;;;;;18.40;10.80;;;;;;;1.80;100.00;100596.49;107196;1256;72319;-79
2024/01/06 04:05:24;;;;;;;19.10;11.30;;;;;;;1.74;100.00;100593.61;107192;1244;58625;-82
2024/01/06 04:07:53;;;;;;;16.30;10.40;;;;;;;1.69;100.00;100593.64;107283;1244;60187;-83
2024/01/06 04:10:21;;;;;;;17.60;11.10;;;;;;;1.66;100.00;100592.23;107299;1246;73145;-82
2024/01/06 04:12:50;;;;;;;18.70;10.50;;;;;;;1.62;100.00;100590.46;107238;1255;70666;-82
2024/01/06 04:15:19;;;;;;;16.00;10.60;;;;;;;1.54;100.00;100594.02;107260;1245;68498;-82
2024/01/06 04:17:49;;;;;;;18.90;10.40;;;;;;;1.44;100.00;100595.06;107173;1248;73781;-83
2024/01/06 04:20:18;;;;;;;18.50;11.70;;;;;;;1.45;100.00;100593.65;107215;1244;62262;-83
2024/01/06 04:22:47;;;;;;;19.40;11.50;;;;;;;1.40;100.00;100597.98;107179;1246;61458;-83
2024/01/06 04:25:16;;;;;;;19.40;11.10;;;;;;;1.29;100.00;100596.65;107256;1248;71110;-81
2024/01/06 04:27:46;;;;;;;17.70;10.70;;;;;;;1.21;100.00;100592.83;107044;1246;71924;-81
2024/01/06 04:30:16;;;;;;;19.00;10.90;;;;;;;1.14;100.00;100584.15;107277;1245;69445;-84
2024/01/06 04:32:48;;;;;;;17.20;9.90;;;;;;;1.04;100.00;100585.70;107065;1248;73659;-83
2024/01/06 04:35:17;;;;;;;17.80;11.00;;;;;;;1.14;100.00;100585.50;107263;1244;60415;-83
2024/01/06 04:37:47;;;;;;;23.20;12.80;;;;;;;1.16;100.00;100580.11;107468;1247;59031;-83
2024/01/06 04:40:16;;;;;;;22.30;14.80;;;;;;;1.14;100.00;100586.21;107286;1244;73475;-82
2024/01/06 04:42:45;;;;;;;20.00;12.20;;;;;;;1.04;100.00;100585.20;107437;1244;72535;-83
2024/01/06 04:45:14;;;;;;;20.00;12.30;;;;;;;0.97;100.00;100591.27;108000;1243;70037;-82
2024/01/06 04:47:42;;;;;;;20.40;12.00;;;;;;;0.92;100.00;100590.23;107756;1245;73312;-82
2024/01/06 04:50:11;;;;;;;18.20;12.90;;;;;;;0.92;100.00;100583.90;107789;1248;61505;-79
2024/01/06 04:52:40;;;;;;;20.90;12.30;;;;;;;0.90;100.00;100580.70;107935;1245;58943;-80
2024/01/06 04:55:09;;;;;;;21.10;13.40;;;;;;;0.89;100.00;100581.06;109609;1245;70786;-81
2024/01/06 04:57:38;;;;;;;22.60;12.90;;;;;;;0.95;100.00;100580.54;109520;1244;70890;-82
2024/01/06 05:00:08;;;;;;;24.00;13.50;;;;;;;0.92;100.00;100571.36;109467;1243;70431;-83
2024/01/06 05:02:37;;;;;;;21.60;13.30;;;;;;;0.95;100.00;100575.23;109480;1243;72595;-82
2024/01/06 05:05:06;;;;;;;21.80;13.30;;;;;;;0.97;100.00;100571.36;109471;1243;60368;-81
2024/01/06 05:07:44;;;;;;;20.40;11.80;;;;;;;1.00;100.00;100569.70;109634;1244;59981;-83
2024/01/06 05:10:23;;;;;;;20.70;13.40;;;;;;;1.04;100.00;100568.20;109661;1244;72041;-82
2024/01/06 05:12:52;;;;;;;21.10;12.60;;;;;;;1.09;100.00;100568.38;109617;1243;72138;-75
2024/01/06 05:15:20;;;;;;;21.10;12.20;;;;;;;1.14;100.00;100565.63;109584;1243;70838;-76
2024/01/06 05:17:49;;;;;;;21.90;12.30;;;;;;;1.21;100.00;100563.67;109463;1244;72403;-77
2024/01/06 05:20:18;;;;;;;35.10;23.80;;;;;;;1.17;100.00;100562.59;109552;1245;60321;-77
2024/01/06 05:22:47;;;;;;;20.90;12.90;;;;;;;1.32;100.00;100570.27;109571;1244;59645;-77
2024/01/06 05:25:16;;;;;;;24.60;13.10;;;;;;;1.36;100.00;100569.63;109512;1244;74173;-78
2024/01/06 05:27:44;;;;;;;21.60;13.60;;;;;;;1.30;100.00;100566.24;109580;1243;71829;-78
2024/01/06 05:30:13;;;;;;;22.70;14.00;;;;;;;1.28;100.00;100570.08;109556;1243;68277;-77
2024/01/06 05:32:42;;;;;;;23.10;15.20;;;;;;;1.26;100.00;100575.98;109575;1244;72994;-79
2024/01/06 05:35:11;;;;;;;25.80;15.20;;;;;;;1.23;100.00;100582.12;109522;1244;61804;-77
2024/01/06 05:37:40;;;;;;;31.60;19.10;;;;;;;1.13;100.00;100580.55;109572;1245;57680;-76
2024/01/06 05:40:09;;;;;;;31.40;17.70;;;;;;;1.03;100.00;100586.23;109564;1245;70701;-77
2024/01/06 05:42:38;;;;;;;29.80;17.50;;;;;;;0.97;100.00;100585.09;109540;1245;70294;-76
2024/01/06 05:45:11;;;;;;;33.10;15.90;;;;;;;0.92;100.00;100582.69;109563;1245;67691;-76
2024/01/06 05:47:40;;;;;;;;;;;;;;;0.87;100.00;100580.45;109481;1244;71096;-77
2024/01/06 05:50:10;;;;;;;32.30;17.30;;;;;;;0.84;100.00;100577.16;109560;1245;59645;-78
2024/01/06 05:52:39;;;;;;;34.20;17.40;;;;;;;0.72;100.00;100579.77;109583;1244;60286;-78
2024/01/06 05:55:09;;;;;;;31.60;16.50;;;;;;;0.68;100.00;100579.56;109532;1244;74565;-78
2024/01/06 05:57:37;;;;;;;25.80;14.90;;;;;;;0.75;100.00;100584.30;109487;1243;72047;-77
2024/01/06 06:00:13;;;;;;;28.00;16.50;;;;;;;0.79;100.00;100587.42;109485;1243;68696;-77
2024/01/06 06:02:42;;;;;;;37.50;18.80;;;;;;;0.79;100.00;100580.89;109418;1244;73277;-78
2024/01/06 06:05:11;;;;;;;33.20;17.80;;;;;;;0.78;100.00;100577.34;109543;1245;59675;-78
2024/01/06 06:07:40;;;;;;;32.30;15.90;;;;;;;0.72;100.00;100573.95;109589;1244;58844;-77
2024/01/06 06:10:11;;;;;;;34.00;17.80;;;;;;;0.67;100.00;100566.39;109497;1244;70194;-76
2024/01/06 06:12:40;;;;;;;28.50;15.30;;;;;;;0.69;100.00;100574.39;109356;1245;69548;-76
2024/01/06 06:15:09;;;;;;;26.40;14.60;;;;;;;0.77;100.00;100578.23;109554;1244;69143;-75
2024/01/06 06:17:39;;;;;;;27.70;14.80;;;;;;;0.69;100.00;100583.81;109575;1244;73084;-74
2024/01/06 06:20:09;;;;;;;28.10;15.70;;;;;;;0.80;100.00;100584.48;109661;1244;61162;-75
2024/01/06 06:22:37;;;;;;;42.20;21.60;;;;;;;0.82;100.00;100576.86;109667;1243;61172;-75
2024/01/06 06:25:08;;;;;;;48.30;21.70;;;;;;;0.88;100.00;100581.47;109657;1244;71970;-75
2024/01/06 06:27:36;;;;;;;28.10;16.40;;;;;;;0.90;100.00;100583.63;109504;1243;71398;-75
2024/01/06 06:30:06;;;;;;;38.70;20.90;;;;;;;0.86;100.00;100575.69;109534;1245;68324;-76
2024/01/06 06:32:35;;;;;;;29.20;16.60;;;;;;;0.82;100.00;100573.93;109585;1244;71881;-78
2024/01/06 06:35:05;;;;;;;28.30;16.40;;;;;;;0.96;100.00;100568.48;109468;1245;59689;-75
2024/01/06 06:37:33;;;;;;;36.60;18.80;;;;;;;1.05;100.00;100568.33;109636;1242;60977;-75
2024/01/06 06:40:02;;;;;;;36.20;19.20;;;;;;;1.14;100.00;100565.98;109433;1245;70422;-75
2024/01/06 06:42:31;;;;;;;37.60;20.90;;;;;;;1.27;100.00;100564.82;109487;1244;70329;-76
2024/01/06 06:45:00;;;;;;;35.00;20.70;;;;;;;1.41;100.00;100566.38;109460;1244;67820;-77
2024/01/06 06:47:29;;;;;;;32.40;18.40;;;;;;;1.53;100.00;100572.75;109348;1245;71475;-77
2024/01/06 06:49:57;;;;;;;30.00;17.50;;;;;;;1.61;100.00;100575.08;109426;1244;62377;-77
2024/01/06 06:52:26;;;;;;;31.30;18.80;;;;;;;1.70;100.00;100574.02;109493;1242;59814;-77
2024/01/06 06:54:55;;;;;;;28.30;14.90;;;;;;;1.82;100.00;100573.91;109339;1244;72632;-76
2024/01/06 06:57:24;;;;;;;24.90;15.00;;;;;;;1.84;100.00;100579.65;109333;1245;69256;-74
2024/01/06 06:59:53;;;;;;;29.10;16.10;;;;;;;2.01;100.00;100572.66;109483;1244;69659;-82
2024/01/06 07:02:23;;;;;;;25.90;15.30;;;;;;;2.16;100.00;100567.27;109266;1247;73634;-77
2024/01/06 07:04:51;;;;;;;28.40;17.20;;;;;;;2.34;100.00;100555.37;109282;1245;62501;-75
2024/01/06 07:07:20;;;;;;;26.80;16.60;;;;;;;2.56;100.00;100561.52;109456;1243;59586;-76
2024/01/06 07:09:52;;;;;;;28.00;17.40;;;;;;;2.56;100.00;100546.73;109447;1243;71550;-75
2024/01/06 07:12:20;;;;;;;25.30;14.60;;;;;;;2.71;100.00;100556.09;109278;1243;71338;-75
2024/01/06 07:14:49;;;;;;;29.10;16.30;;;;;;;2.89;100.00;100555.80;109473;1244;60577;-74
2024/01/06 07:17:18;;;;;;;28.50;15.70;;;;;;;3.01;100.00;100554.11;109364;1245;63050;-80
2024/01/06 07:19:48;;;;;;;25.50;15.70;;;;;;;3.16;100.00;100543.98;109559;1244;61951;-82
2024/01/06 07:22:18;;;;;;;24.60;15.10;;;;;;;3.34;100.00;100540.59;109617;1244;57102;-77
2024/01/06 07:24:47;;;;;;;22.50;14.50;;;;;;;3.45;100.00;100550.44;109628;1243;73480;-77
2024/01/06 07:27:15;;;;;;;25.00;14.80;;;;;;;3.59;100.00;100554.93;109493;1246;72350;-77
2024/01/06 07:29:44;;;;;;;22.90;13.40;;;;;;;3.67;100.00;100553.39;109640;1244;60635;-77
2024/01/06 07:32:13;;;;;;;22.80;13.50;;;;;;;3.80;100.00;100548.45;109577;1244;63222;-77
2024/01/06 07:34:43;;;;;;;21.40;13.10;;;;;;;3.91;100.00;100549.82;109611;1244;57711;-77
2024/01/06 07:37:12;;;;;;;21.60;11.90;;;;;;;3.80;100.00;100545.34;109620;1244;57213;-78
2024/01/06 07:39:41;;;;;;;20.30;12.30;;;;;;;3.85;100.00;100545.96;109527;1244;62285;-77
2024/01/06 07:42:10;;;;;;;19.90;12.50;;;;;;;3.97;100.00;100552.15;109612;1244;72127;-77
2024/01/06 07:44:38;;;;;;;18.50;12.10;;;;;;;3.97;100.00;100553.16;109525;1243;70694;-76
2024/01/06 07:47:07;;;;;;;22.10;13.20;;;;;;;4.15;100.00;100552.29;109517;1244;63743;-77
2024/01/06 07:49:36;;;;;;;19.00;12.00;;;;;;;4.17;100.00;100558.96;109509;1244;57209;-77
2024/01/06 07:52:05;;;;;;;20.20;11.80;;;;;;;4.16;100.00;100563.30;109546;1245;60549;-77
2024/01/06 07:54:34;;;;;;;20.10;12.20;;;;;;;4.33;100.00;100561.59;109544;1244;63763;-77
2024/01/06 07:57:03;;;;;;;21.20;13.00;;;;;;;4.36;100.00;100562.14;109501;1244;60897;-76
2024/01/06 07:59:32;;;;;;;19.20;12.50;;;;;;;4.32;100.00;100554.61;109603;1244;68545;-77
2024/01/06 08:02:01;;;;;;;20.60;11.70;;;;;;;4.41;100.00;100543.98;109625;1242;64620;-75
2024/01/06 08:04:30;;;;;;;18.00;11.50;;;;;;;4.45;100.00;100536.34;109608;1244;57364;-76
2024/01/06 08:06:59;;;;;;;17.40;11.40;;;;;;;4.49;100.00;100533.22;109604;1243;57305;-76
2024/01/06 08:09:28;;;;;;;18.40;12.20;;;;;;;4.52;100.00;100538.23;109341;1244;72629;-76
2024/01/06 08:11:57;;;;;;;19.80;12.60;;;;;;;4.41;100.00;100533.80;109475;1242;72219;-77
2024/01/06 08:14:28;;;;;;;18.50;12.90;;;;;;;4.52;100.00;100521.20;109617;1243;60323;-79
2024/01/06 08:16:57;;;;;;;19.60;12.80;;;;;;;4.57;100.00;100523.67;109587;1243;73093;-77
2024/01/06 08:19:28;;;;;;;24.80;13.50;;;;;;;4.57;100.00;100523.02;109589;1244;62524;-76
2024/01/06 08:21:57;;;;;;;23.20;13.00;;;;;;;4.58;100.00;100530.02;109624;1243;60285;-76
2024/01/06 08:24:26;;;;;;;24.60;13.80;;;;;;;4.57;100.00;100540.24;109522;1243;63488;-77
2024/01/06 08:26:55;;;;;;;19.70;13.00;;;;;;;4.64;100.00;100546.10;109595;1244;61416;-77
2024/01/06 08:29:24;;;;;;;23.10;13.00;;;;;;;4.78;100.00;100548.35;109592;1243;69431;-77
2024/01/06 08:31:54;;;;;;;21.60;13.40;;;;;;;4.84;100.00;100545.10;109444;1243;74449;-77
2024/01/06 08:34:23;;;;;;;24.30;14.80;;;;;;;4.98;100.00;100534.34;109224;1247;57851;-77
2024/01/06 08:36:53;;;;;;;23.80;13.40;;;;;;;5.01;100.00;100545.74;109333;1243;60265;-76
2024/01/06 08:39:22;;;;;;;21.50;12.40;;;;;;;5.05;100.00;100536.24;109227;1247;74327;-77
2024/01/06 08:41:51;;;;;;;21.20;13.50;;;;;;;4.90;100.00;100531.67;109385;1243;72408;-76
2024/01/06 08:44:20;;;;;;;22.70;12.10;;;;;;;4.94;100.00;100536.64;109346;1243;71219;-76
2024/01/06 08:46:48;;;;;;;21.10;13.60;;;;;;;4.97;100.00;100526.98;109360;1244;74116;-77
2024/01/06 08:49:18;;;;;;;24.10;14.20;;;;;;;5.09;100.00;100528.82;109362;1245;57700;-77
2024/01/06 08:51:46;;;;;;;23.40;13.30;;;;;;;5.14;100.00;100536.27;109494;1243;60387;-76
2024/01/06 08:54:16;;;;;;;24.50;14.40;;;;;;;5.17;100.00;100537.17;109456;1243;62457;-77
2024/01/06 08:56:45;;;;;;;21.00;13.10;;;;;;;5.29;100.00;100537.70;109486;1243;61445;-76
2024/01/06 08:59:14;;;;;;;24.00;13.00;;;;;;;5.43;100.00;100539.05;109546;1243;59854;-77
2024/01/06 09:01:43;;;;;;;20.80;13.40;;;;;;;5.45;100.00;100538.77;109670;1243;73025;-76
2024/01/06 09:04:14;;;;;;;21.30;13.60;;;;;;;5.47;100.00;100536.79;109532;1244;57742;-76
2024/01/06 09:06:43;;;;;;;20.50;12.50;;;;;;;5.55;100.00;100525.08;109598;1242;57667;-76
2024/01/06 09:09:13;;;;;;;21.40;12.50;;;;;;;5.67;100.00;100516.69;109610;1243;62811;-77
2024/01/06 09:11:44;;;;;;;17.00;11.90;;;;;;;5.74;100.00;100511.44;109400;1244;61484;-77
2024/01/06 09:14:12;;;;;;;21.30;12.80;;;;;;;5.79;100.00;100508.59;109473;1243;70470;-76
2024/01/06 09:16:41;;;;;;;19.30;12.30;;;;;;;5.71;100.00;100501.44;109434;1244;74541;-76
2024/01/06 09:19:10;;;;;;;19.30;12.60;;;;;;;5.78;100.00;100500.67;109467;1244;57607;-77
2024/01/06 09:21:39;;;;;;;24.60;13.50;;;;;;;5.86;100.00;100499.77;109273;1243;61249;-77
2024/01/06 09:24:10;;;;;;;21.50;13.60;;;;;;;5.83;100.00;100494.91;109372;1242;63646;-77
2024/01/06 09:26:39;;;;;;;21.20;13.40;;;;;;;5.80;100.00;100486.25;109443;1243;61605;-77
2024/01/06 09:29:08;;;;;;;21.10;12.80;;;;;;;5.89;100.00;100480.41;109472;1242;59238;-76
2024/01/06 09:31:37;;;;;;;26.90;16.90;;;;;;;6.02;100.00;100477.09;109406;1244;73940;-77
2024/01/06 09:34:09;;;;;;;23.80;13.80;;;;;;;6.11;100.00;100472.57;109404;1244;57641;-77
2024/01/06 09:36:38;;;;;;;20.30;12.40;;;;;;;6.19;100.00;100467.10;109186;1243;60226;-76
2024/01/06 09:39:08;;;;;;;17.90;10.70;;;;;;;6.35;100.00;100469.98;109358;1243;63744;-76
2024/01/06 09:41:36;;;;;;;21.30;12.50;;;;;;;6.48;100.00;100467.79;109443;1244;72121;-76
2024/01/06 09:44:06;;;;;;;20.30;11.90;;;;;;;6.46;100.00;100461.19;109366;1243;70660;-76
2024/01/06 09:46:37;;;;;;;18.50;11.20;;;;;;;6.56;100.00;100454.75;109336;1244;74011;-77
2024/01/06 09:49:06;;;;;;;19.50;11.50;;;;;;;6.63;100.00;100456.40;109332;1245;60685;-76
2024/01/06 09:51:39;;;;;;;21.30;11.20;;;;;;;6.64;100.00;100451.99;109419;1243;57691;-76
2024/01/06 09:54:12;;;;;;;22.30;11.80;;;;;;;6.65;100.00;100446.54;109284;1244;62745;-76
2024/01/06 09:56:45;;;;;;;17.10;11.50;;;;;;;6.77;100.00;100447.06;109219;1244;72018;-75
2024/01/06 09:59:14;;;;;;;;;;;;;;;6.80;100.00;100434.95;109230;1244;71082;-75
2024/01/06 10:01:42;;;;;;;19.70;11.20;;;;;;;6.79;100.00;100433.60;109406;1244;73996;-76
2024/01/06 10:04:12;;;;;;;20.60;11.90;;;;;;;6.76;100.00;100433.08;109297;1245;62491;-76
2024/01/06 10:06:49;;;;;;;29.90;12.70;;;;;;;6.91;100.00;100430.95;109298;1243;60193;-76
2024/01/06 10:09:27;;;;;;;21.40;11.80;;;;;;;6.95;100.00;100433.34;109440;1244;64543;-77
2024/01/06 10:11:59;;;;;;;21.30;11.20;;;;;;;7.13;100.00;100429.96;109298;1243;72190;-77
2024/01/06 10:14:28;;;;;;;27.10;12.70;;;;;;;7.21;100.00;100425.30;109316;1243;60168;-77
2024/01/06 10:16:57;;;;;;;20.70;11.80;;;;;;;7.00;100.00;100417.97;109417;1243;73844;-76
2024/01/06 10:19:26;;;;;;;20.70;12.10;;;;;;;7.11;100.00;100422.77;109460;1244;61672;-77
2024/01/06 10:21:56;;;;;;;21.00;11.50;;;;;;;7.25;100.00;100421.74;109346;1243;61605;-76
2024/01/06 10:24:25;;;;;;;23.80;12.50;;;;;;;7.45;100.00;100423.11;109414;1244;74680;-76
2024/01/06 10:26:54;;;;;;;18.50;11.60;;;;;;;7.41;100.00;100415.70;109309;1243;72625;-76
2024/01/06 10:29:24;;;;;;;20.50;11.70;;;;;;;7.47;100.00;100422.06;109258;1243;71036;-76
2024/01/06 10:31:54;;;;;;;19.90;11.40;;;;;;;7.51;100.00;100413.82;109398;1244;64059;-76
2024/01/06 10:34:32;;;;;;;25.30;12.00;;;;;;;7.49;100.00;100398.05;109341;1245;57635;-77
2024/01/06 10:37:01;;;;;;;20.60;12.10;;;;;;;7.63;100.00;100391.59;109419;1244;57664;-77
2024/01/06 10:39:33;;;;;;;24.10;12.70;;;;;;;7.72;100.00;100379.73;109439;1243;61942;-76
2024/01/06 10:42:06;;;;;;;19.50;12.50;;;;;;;7.91;100.00;100371.73;109430;1243;60859;-76
2024/01/06 10:44:38;;;;;;;17.70;11.60;;;;;;;7.86;100.00;100363.38;109439;1243;59790;-76
2024/01/06 10:47:07;;;;;;;19.60;11.60;;;;;;;7.64;100.00;100355.98;109398;1244;73786;-76
2024/01/06 10:49:36;;;;;;;27.80;13.10;;;;;;;7.77;100.00;100348.85;109309;1244;57624;-77
2024/01/06 10:52:06;;;;;;;21.40;13.10;;;;;;;7.75;100.00;100350.77;109309;1243;61262;-75
2024/01/06 10:54:36;;;;;;;23.40;12.90;;;;;;;7.78;100.00;100350.09;109449;1244;63256;-77
2024/01/06 10:57:06;;;;;;;23.90;12.10;;;;;;;7.87;100.00;100347.73;109165;1244;61521;-77
2024/01/06 10:59:37;;;;;;;21.50;11.40;;;;;;;8.01;100.00;100345.36;109310;1245;69788;-74
2024/01/06 11:02:07;;;;;;;21.50;12.80;;;;;;;8.33;100.00;100349.29;109325;1243;73564;-75
2024/01/06 11:04:37;;;;;;;23.90;13.00;;;;;;;8.50;100.00;100350.92;109392;1245;61887;-76
2024/01/06 11:07:06;;;;;;;22.40;11.80;;;;;;;8.47;100.00;100346.05;109374;1244;57259;-76
2024/01/06 11:09:39;;;;;;;22.30;12.60;;;;;;;8.34;100.00;100338.83;109274;1244;73469;-76
2024/01/06 11:12:08;;;;;;;;;;;;;;;8.71;100.00;100330.35;109372;1245;69933;-75
2024/01/06 11:14:37;;;;;;;27.50;12.80;;;;;;;8.77;100.00;100324.04;109338;1243;69545;-76